Time;durP1;ratioP1;P1;durP2;ratioP2;P2;SDS_P1;SDS_P2;PMS_P1;PMS_P2;Temp;Humidity;BMP_temperature;BMP_pressure;BME280_temperature;BME280_humidity;BME280_pressure;Samples;Min_cycle;Max_cycle;Signal;HPM_P1;HPM_P2
2023/07/18 00:01:30;;;;;;;;;1.50;1.00;;;;;14.14;62.71;100451.38;5035051;28;8952;-58
2023/07/18 00:03:58;;;;;;;;;0.00;0.00;;;;;14.11;63.23;100451.63;5025066;28;8841;-58
2023/07/18 00:06:27;;;;;;;;;3.25;3.00;;;;;14.10;62.53;100446.41;5028628;28;8888;-59
2023/07/18 00:08:54;;;;;;;;;3.75;2.50;;;;;14.07;63.13;100462.75;5033427;28;8836;-58
2023/07/18 00:11:22;;;;;;;;;2.00;1.50;;;;;14.05;63.02;100464.72;5035081;28;8944;-58
2023/07/18 00:13:50;;;;;;;;;5.00;3.50;;;;;14.01;62.74;100457.91;5028251;28;9468;-57
2023/07/18 00:16:17;;;;;;;;;4.00;3.00;;;;;13.97;63.29;100451.13;5014918;28;8838;-58
2023/07/18 00:18:45;;;;;;;;;4.00;3.00;;;;;13.93;63.53;100457.72;5015212;28;8819;-56
2023/07/18 00:21:13;;;;;;;;;3.25;3.00;;;;;13.88;63.30;100450.06;5027255;28;8816;-58
2023/07/18 00:23:41;;;;;;;;;1.50;1.50;;;;;13.85;63.63;100450.34;5034063;28;8828;-56
2023/07/18 00:26:09;;;;;;;;;3.75;3.00;;;;;13.82;63.27;100452.44;5034765;28;8824;-58
2023/07/18 00:28:38;;;;;;;;;3.00;3.00;;;;;13.79;63.57;100445.50;5024186;28;8965;-57
2023/07/18 00:31:06;;;;;;;;;1.00;1.00;;;;;13.76;63.54;100442.25;5029943;28;8834;-58
2023/07/18 00:33:34;;;;;;;;;3.25;3.25;;;;;13.74;63.67;100447.72;5014811;28;8822;-57
2023/07/18 00:36:02;;;;;;;;;3.75;2.50;;;;;13.73;63.69;100447.88;5021521;28;9466;-59
2023/07/18 00:38:29;;;;;;;;;3.00;3.00;;;;;13.71;63.89;100441.78;5032330;28;8812;-58
2023/07/18 00:40:57;;;;;;;;;6.00;4.00;;;;;13.68;64.10;100447.38;5034142;28;8824;-59
2023/07/18 00:43:25;;;;;;;;;3.25;2.00;;;;;13.66;63.52;100455.53;5035147;28;8816;-57
2023/07/18 00:45:53;;;;;;;;;3.00;3.00;;;;;13.64;63.70;100448.63;5033899;28;8832;-57
2023/07/18 00:48:27;;;;;;;;;2.00;2.00;;;;;13.62;63.32;100448.75;5034329;28;8841;-57
2023/07/18 00:50:55;;;;;;;;;2.00;2.00;;;;;13.59;64.13;100445.50;5033490;28;8938;-57
2023/07/18 00:53:23;;;;;;;;;3.75;3.00;;;;;13.57;63.79;100445.63;5033835;28;8848;-58
2023/07/18 00:55:51;;;;;;;;;4.00;3.00;;;;;13.56;64.07;100443.06;5021764;28;8842;-59
2023/07/18 00:58:19;;;;;;;;;3.00;3.00;;;;;13.54;63.73;100443.22;5024418;28;8890;-56
2023/07/18 01:00:47;;;;;;;;;1.00;0.25;;;;;13.53;64.26;100438.81;5032118;28;8814;-59
2023/07/18 01:03:16;;;;;;;;;5.00;3.75;;;;;13.52;63.63;100441.63;5033499;28;8849;-59
2023/07/18 01:05:44;;;;;;;;;7.50;4.50;;;;;13.51;64.00;100437.25;5028025;28;8823;-58
2023/07/18 01:08:11;;;;;;;;;4.50;4.00;;;;;13.48;64.24;100450.88;5027402;28;8824;-58
2023/07/18 01:10:39;;;;;;;;;3.25;3.25;;;;;13.46;63.77;100444.81;5031415;28;8812;-58
2023/07/18 01:13:07;;;;;;;;;2.00;1.00;;;;;13.43;63.99;100443.25;5031415;28;9446;-57
2023/07/18 01:15:35;;;;;;;;;3.00;3.00;;;;;13.44;64.33;100441.44;5024235;28;8832;-58
2023/07/18 01:18:04;;;;;;;;;4.00;4.00;;;;;13.43;64.06;100445.09;5034072;28;8840;-59
2023/07/18 01:20:33;;;;;;;;;3.25;3.25;;;;;13.41;63.88;100441.66;5033537;28;8926;-59
2023/07/18 01:23:00;;;;;;;;;1.00;1.00;;;;;13.40;63.95;100439.97;5034233;28;8831;-58
2023/07/18 01:25:28;;;;;;;;;3.50;3.00;;;;;13.38;64.21;100441.94;5033572;28;8994;-59
2023/07/18 01:27:56;;;;;;;;;4.00;3.25;;;;;13.35;64.68;100434.16;5033416;28;8835;-59
2023/07/18 01:30:24;;;;;;;;;3.00;2.50;;;;;13.32;64.47;100437.94;5033675;28;8958;-56
2023/07/18 01:32:52;;;;;;;;;3.00;1.00;;;;;13.30;64.28;100434.53;5033456;28;8832;-58
2023/07/18 01:35:21;;;;;;;;;3.50;3.00;;;;;13.27;64.26;100434.78;5033699;28;8909;-58
2023/07/18 01:37:48;;;;;;;;;6.00;4.00;;;;;13.25;64.43;100433.22;5033828;28;8839;-58
2023/07/18 01:40:19;;;;;;;;;3.00;3.00;;;;;13.21;64.29;100437.97;5033824;28;8847;-58
2023/07/18 01:42:48;;;;;;;;;3.00;3.00;;;;;13.19;64.75;100433.72;5034126;28;8828;-56
2023/07/18 01:45:16;;;;;;;;;3.75;3.00;;;;;13.17;64.13;100436.53;5033913;28;8831;-56
2023/07/18 01:47:43;;;;;;;;;2.00;2.00;;;;;13.15;64.44;100434.97;5033928;28;8870;-58
2023/07/18 01:50:11;;;;;;;;;3.50;3.00;;;;;13.12;64.90;100429.84;5033329;28;8839;-57
2023/07/18 01:52:39;;;;;;;;;5.50;4.00;;;;;13.10;64.64;100434.47;5033408;28;8859;-56
2023/07/18 01:55:07;;;;;;;;;3.50;3.00;;;;;13.06;65.16;100433.88;5033288;28;8828;-58
2023/07/18 01:57:35;;;;;;;;;4.00;3.75;;;;;13.06;64.97;100435.72;5033397;28;8932;-58
2023/07/18 02:00:03;;;;;;;;;3.00;1.00;;;;;13.03;64.59;100423.44;5033569;28;8828;-57
2023/07/18 02:02:32;;;;;;;;;3.25;3.00;;;;;13.02;64.87;100434.25;5033236;28;8808;-59
2023/07/18 02:04:59;;;;;;;;;3.75;3.00;;;;;12.99;64.59;100431.84;5033409;28;8859;-58
2023/07/18 02:07:27;;;;;;;;;4.00;4.00;;;;;12.96;65.15;100418.72;5033330;28;8851;-58
2023/07/18 02:09:55;;;;;;;;;3.75;3.75;;;;;12.94;65.03;100424.22;5033338;28;8816;-56
2023/07/18 02:12:23;;;;;;;;;1.00;1.00;;;;;12.92;65.32;100419.91;5026547;28;8812;-59
2023/07/18 02:14:51;;;;;;;;;1.00;1.00;;;;;12.92;64.67;100422.59;5033232;28;8934;-58
2023/07/18 02:17:18;;;;;;;;;3.25;3.00;;;;;12.89;64.86;100425.50;5033206;28;8866;-57
2023/07/18 02:19:46;;;;;;;;;3.00;3.00;;;;;12.88;65.25;100419.31;5028821;28;9476;-58
2023/07/18 02:22:14;;;;;;;;;3.75;3.00;;;;;12.87;64.83;100416.75;5013107;28;8814;-55
2023/07/18 02:24:42;;;;;;;;;3.25;2.00;;;;;12.85;65.26;100413.38;5013339;28;8830;-58
2023/07/18 02:27:09;;;;;;;;;4.00;4.00;;;;;12.82;65.27;100418.94;5027044;28;8864;-58
2023/07/18 02:29:37;;;;;;;;;1.00;1.00;;;;;12.81;65.05;100414.56;5032506;28;8843;-56
2023/07/18 02:32:05;;;;;;;;;0.75;0.75;;;;;12.80;64.93;100420.91;5032855;28;8832;-58
2023/07/18 02:34:33;;;;;;;;;3.50;3.00;;;;;12.80;65.05;100423.56;5017342;28;8841;-57
2023/07/18 02:37:01;;;;;;;;;3.00;1.50;;;;;12.77;64.96;100413.97;5013155;28;8834;-58
2023/07/18 02:39:30;;;;;;;;;5.00;3.25;;;;;12.76;65.16;100414.97;5014206;28;8826;-57
2023/07/18 02:41:58;;;;;;;;;3.75;3.25;;;;;12.76;65.00;100411.44;5013676;28;8856;-58
2023/07/18 02:44:25;;;;;;;;;2.00;1.50;;;;;12.77;65.41;100416.66;5014633;28;8923;-57
2023/07/18 02:46:53;;;;;;;;;3.50;2.00;;;;;12.76;65.38;100419.47;5032632;28;8866;-55
2023/07/18 02:49:21;;;;;;;;;4.50;4.00;;;;;12.76;64.94;100406.94;5031507;28;8827;-58
2023/07/18 02:51:49;;;;;;;;;4.75;3.75;;;;;12.76;65.25;100414.13;5012898;28;9549;-58
2023/07/18 02:54:17;;;;;;;;;1.00;1.00;;;;;12.76;64.87;100406.94;5013167;28;8837;-56
2023/07/18 02:56:45;;;;;;;;;4.00;3.75;;;;;12.76;65.13;100406.09;5028315;28;8820;-56
2023/07/18 02:59:13;;;;;;;;;3.50;3.50;;;;;12.74;65.19;100400.00;5032575;28;8815;-59
2023/07/18 03:01:43;;;;;;;;;3.00;3.00;;;;;12.75;65.48;100407.09;5032777;28;9497;-56
2023/07/18 03:04:12;;;;;;;;;4.00;3.00;;;;;12.74;65.52;100400.00;5019962;28;8830;-57
2023/07/18 03:06:40;;;;;;;;;4.25;3.75;;;;;12.72;65.35;100402.84;5012472;28;8845;-56
2023/07/18 03:09:08;;;;;;;;;6.00;4.00;;;;;12.71;65.13;100408.28;5012678;28;8833;-56
2023/07/18 03:11:35;;;;;;;;;3.50;3.50;;;;;12.68;65.33;100411.22;5012996;28;8842;-56
2023/07/18 03:14:03;;;;;;;;;3.00;2.50;;;;;12.63;65.21;100408.06;5012861;28;8830;-58
2023/07/18 03:16:31;;;;;;;;;3.00;3.00;;;;;12.58;65.54;100408.44;5012906;28;8870;-59
2023/07/18 03:18:59;;;;;;;;;3.00;1.00;;;;;12.55;65.61;100410.50;5016180;28;8944;-58
2023/07/18 03:21:27;;;;;;;;;6.00;3.50;;;;;12.49;65.79;100408.31;5031855;28;8831;-58
2023/07/18 03:23:55;;;;;;;;;3.00;3.00;;;;;12.44;66.04;100406.00;5033014;28;8840;-58
2023/07/18 03:26:23;;;;;;;;;3.00;3.00;;;;;12.42;65.77;100399.09;5035444;28;8854;-58
2023/07/18 03:28:51;;;;;;;;;3.00;3.00;;;;;12.41;66.01;100395.59;5035622;28;8835;-57
2023/07/18 03:31:18;;;;;;;;;4.00;3.00;;;;;12.41;65.96;100408.09;5035687;28;8863;-58
2023/07/18 03:33:47;;;;;;;;;2.00;2.00;;;;;12.42;65.81;100407.09;5035787;28;8895;-57
2023/07/18 03:36:15;;;;;;;;;3.25;3.25;;;;;12.43;65.61;100400.78;5034771;28;8836;-58
2023/07/18 03:38:42;;;;;;;;;3.00;3.00;;;;;12.43;65.79;100407.00;5015493;28;8826;-59
2023/07/18 03:41:10;;;;;;;;;3.75;3.00;;;;;12.44;66.06;100407.81;5015419;28;8844;-58
2023/07/18 03:43:38;;;;;;;;;4.00;4.00;;;;;12.44;65.96;100406.00;5016687;28;8818;-57
2023/07/18 03:46:05;;;;;;;;;4.50;4.50;;;;;12.45;66.16;100398.88;5015653;28;8859;-58
2023/07/18 03:48:34;;;;;;;;;4.00;4.00;;;;;12.45;65.84;100398.88;5015393;28;8869;-58
2023/07/18 03:51:02;;;;;;;;;4.00;3.75;;;;;12.45;65.48;100399.69;5015168;28;8922;-57
2023/07/18 03:53:30;;;;;;;;;3.75;3.75;;;;;12.45;66.14;100396.19;5016169;28;8830;-58
2023/07/18 03:55:57;;;;;;;;;4.00;3.75;;;;;12.47;65.96;100396.91;5032083;28;8827;-58
2023/07/18 03:58:25;;;;;;;;;8.50;5.50;;;;;12.45;65.86;100412.22;5034288;28;8859;-57
2023/07/18 04:00:53;;;;;;;;;4.00;3.00;;;;;12.43;65.93;100409.66;5034377;28;8832;-58
2023/07/18 04:03:20;;;;;;;;;6.75;6.00;;;;;12.44;65.68;100403.34;5034221;28;8972;-58
2023/07/18 04:05:51;;;;;;;;;4.50;3.75;;;;;12.48;65.33;100406.63;5032924;28;8873;-58
2023/07/18 04:08:18;;;;;;;;;4.00;4.00;;;;;12.49;65.74;100403.84;5034224;28;8855;-59
2023/07/18 04:10:47;;;;;;;;;3.50;3.00;;;;;12.52;65.69;100405.38;5019060;28;8818;-58
2023/07/18 04:13:15;;;;;;;;;6.00;6.00;;;;;12.53;65.83;100393.75;5014447;28;9503;-57
2023/07/18 04:15:42;;;;;;;;;5.50;5.50;;;;;12.54;65.68;100398.94;5014732;28;8830;-58
2023/07/18 04:18:10;;;;;;;;;5.00;4.00;;;;;12.56;65.78;100396.16;5014859;28;8826;-56
2023/07/18 04:20:38;;;;;;;;;4.00;4.00;;;;;12.58;65.21;100394.22;5034592;28;8832;-57
2023/07/18 04:23:05;;;;;;;;;5.00;4.50;;;;;12.60;65.18;100392.28;5018816;28;8810;-56
2023/07/18 04:25:34;;;;;;;;;3.00;3.00;;;;;12.63;65.30;100392.03;5013902;28;8827;-58
2023/07/18 04:28:02;;;;;;;;;6.25;5.75;;;;;12.66;65.13;100391.78;5014573;28;8872;-59
2023/07/18 04:30:30;;;;;;;;;1.00;1.00;;;;;12.66;65.18;100391.78;5027197;28;8840;-56
2023/07/18 04:32:58;;;;;;;;;5.00;4.50;;;;;12.71;65.22;100394.94;5034241;28;8823;-58
2023/07/18 04:35:26;;;;;;;;;3.00;3.00;;;;;12.76;64.78;100387.41;5033129;28;8836;-58
2023/07/18 04:37:53;;;;;;;;;3.50;3.25;;;;;12.83;65.33;100381.41;5034244;28;8840;-58
2023/07/18 04:40:22;;;;;;;;;3.75;3.75;;;;;13.00;64.91;100380.06;5019090;28;8820;-58
2023/07/18 04:42:49;;;;;;;;;4.00;4.00;;;;;13.13;64.17;100383.44;5015888;28;8968;-58
2023/07/18 04:45:17;;;;;;;;;6.50;6.50;;;;;13.27;63.93;100383.09;5014296;28;8826;-58
2023/07/18 04:47:45;;;;;;;;;3.50;3.00;;;;;13.39;64.08;100382.09;5015209;28;8826;-58
2023/07/18 04:50:13;;;;;;;;;4.00;3.25;;;;;13.46;64.07;100380.59;5016352;28;8840;-57
2023/07/18 04:52:41;;;;;;;;;3.75;3.75;;;;;13.53;63.73;100381.78;5018474;28;8840;-58
2023/07/18 04:55:10;;;;;;;;;4.50;4.50;;;;;13.59;63.85;100373.25;5020845;28;9499;-58
2023/07/18 04:57:38;;;;;;;;;4.00;4.00;;;;;13.66;63.52;100369.06;5014221;28;8856;-56
2023/07/18 05:00:06;;;;;;;;;4.00;4.00;;;;;13.77;63.38;100371.66;5014077;28;8834;-57
2023/07/18 05:02:34;;;;;;;;;6.00;5.50;;;;;13.91;63.82;100374.00;5033212;28;8848;-58
2023/07/18 05:05:02;;;;;;;;;4.50;4.00;;;;;14.00;62.98;100373.19;5031895;28;8962;-59
2023/07/18 05:07:30;;;;;;;;;4.50;4.50;;;;;14.07;63.25;100366.31;5029338;28;8820;-58
2023/07/18 05:09:57;;;;;;;;;8.50;7.00;;;;;14.12;62.93;100366.78;5031923;28;8804;-59
2023/07/18 05:12:25;;;;;;;;;6.75;6.75;;;;;14.14;62.67;100368.34;5033573;28;8961;-58
2023/07/18 05:14:52;;;;;;;;;5.00;5.00;;;;;14.14;63.01;100378.19;5033750;28;8871;-58
2023/07/18 05:17:20;;;;;;;;;7.50;7.00;;;;;14.11;63.23;100370.44;5020693;28;8846;-59
2023/07/18 05:19:48;;;;;;;;;12.25;10.00;;;;;14.07;63.22;100371.69;5033369;28;8842;-55
2023/07/18 05:22:15;;;;;;;;;9.00;9.00;;;;;14.07;63.37;100377.03;5033320;28;8820;-58
2023/07/18 05:24:43;;;;;;;;;7.00;7.00;;;;;14.15;63.34;100377.22;5033297;28;8859;-58
2023/07/18 05:27:11;;;;;;;;;9.50;7.00;;;;;14.26;62.70;100367.28;5032997;28;8864;-57
2023/07/18 05:29:39;;;;;;;;;7.50;6.50;;;;;14.43;63.11;100365.81;5033279;28;8808;-58
2023/07/18 05:32:06;;;;;;;;;6.75;5.50;;;;;14.60;62.56;100367.84;5033413;28;8839;-58
2023/07/18 05:34:34;;;;;;;;;6.25;6.25;;;;;14.79;61.85;100362.53;5032967;28;8817;-58
2023/07/18 05:37:04;;;;;;;;;7.00;7.00;;;;;14.99;61.95;100369.59;5032855;28;8828;-58
2023/07/18 05:39:32;;;;;;;;;7.50;7.00;;;;;15.15;61.47;100369.88;5033255;28;8843;-58
2023/07/18 05:42:00;;;;;;;;;6.00;5.00;;;;;15.35;61.00;100366.25;5033424;28;9547;-58
2023/07/18 05:44:27;;;;;;;;;3.75;3.75;;;;;15.54;60.64;100360.91;5032794;28;8846;-58
2023/07/18 05:46:55;;;;;;;;;6.50;6.25;;;;;15.70;60.93;100361.16;5032381;28;8967;-59
2023/07/18 05:49:23;;;;;;;;;3.50;3.50;;;;;15.84;60.29;100358.84;5032568;28;8832;-58
2023/07/18 05:51:51;;;;;;;;;6.75;6.00;;;;;15.98;60.27;100358.38;5033197;28;8823;-59
2023/07/18 05:54:19;;;;;;;;;4.00;4.00;;;;;16.14;60.11;100355.09;5032889;28;8835;-60
2023/07/18 05:56:47;;;;;;;;;4.00;4.00;;;;;16.26;60.03;100350.22;5030812;28;8862;-58
2023/07/18 05:59:15;;;;;;;;;4.00;3.00;;;;;16.38;60.01;100352.75;5012310;28;8857;-58
2023/07/18 06:01:43;;;;;;;;;3.00;3.00;;;;;16.50;59.44;100352.41;5011962;28;8822;-59
2023/07/18 06:04:15;;;;;;;;;3.25;3.25;;;;;16.61;59.19;100350.38;5012412;28;9504;-58
2023/07/18 06:06:44;;;;;;;;;6.75;6.00;;;;;16.72;59.12;100347.44;5012995;28;8834;-59
2023/07/18 06:09:12;;;;;;;;;3.00;3.00;;;;;16.86;59.03;100352.31;5013105;28;8826;-59
2023/07/18 06:11:40;;;;;;;;;4.00;4.00;;;;;17.00;59.15;100346.41;5011295;28;8956;-58
2023/07/18 06:14:08;;;;;;;;;3.20;3.00;;;;;17.12;58.64;100349.72;5011147;28;8846;-59
2023/07/18 06:16:36;;;;;;;;;4.40;4.00;;;;;17.27;58.60;100358.97;5027919;28;8828;-59
2023/07/18 06:19:04;;;;;;;;;4.40;3.40;;;;;17.38;57.94;100356.91;5031353;28;8868;-59
2023/07/18 06:21:32;;;;;;;;;3.00;3.00;;;;;17.50;58.30;100352.13;5025437;28;8925;-57
2023/07/18 06:24:00;;;;;;;;;3.00;3.00;;;;;17.63;58.28;100349.88;5014230;28;8852;-60
2023/07/18 06:26:48;;;;;;;;;1.40;1.40;;;;;17.77;57.98;100357.41;5031915;28;9521;-59
2023/07/18 06:29:17;;;;;;;;;4.80;4.40;;;;;17.94;57.79;100351.97;5032422;28;8844;-57
2023/07/18 06:31:44;;;;;;;;;4.00;3.00;;;;;18.10;57.69;100346.69;5032055;28;9615;-59
2023/07/18 06:34:12;;;;;;;;;2.60;2.60;;;;;18.23;57.39;100341.66;5030182;28;8962;-59
2023/07/18 06:36:40;;;;;;;;;3.00;3.00;;;;;18.36;56.97;100354.78;5032002;28;8969;-58
2023/07/18 06:39:08;;;;;;;;;4.00;3.00;;;;;18.48;56.98;100348.06;5029369;28;8842;-59
2023/07/18 06:41:36;;;;;;;;;1.40;1.40;;;;;18.58;56.70;100351.50;5022268;28;8949;-58
2023/07/18 06:44:05;;;;;;;;;2.20;2.20;;;;;18.67;56.89;100348.63;5012530;28;8927;-57
2023/07/18 06:46:33;;;;;;;;;3.00;3.00;;;;;18.75;56.83;100343.28;5011635;28;8842;-60
2023/07/18 06:49:01;;;;;;;;;3.20;1.40;;;;;18.83;56.89;100351.38;5026538;28;8824;-59
2023/07/18 06:51:28;;;;;;;;;3.00;2.60;;;;;18.90;56.71;100349.72;5030989;28;8848;-57
2023/07/18 06:53:56;;;;;;;;;1.80;1.80;;;;;18.99;56.70;100343.34;5031530;28;8846;-59
2023/07/18 06:56:24;;;;;;;;;3.00;3.00;;;;;19.10;56.40;100336.75;5015046;28;8822;-59
2023/07/18 06:58:51;;;;;;;;;3.00;2.60;;;;;19.18;56.31;100332.22;5013295;28;8830;-59
2023/07/18 07:01:19;;;;;;;;;5.40;5.40;;;;;19.25;56.51;100332.44;5034688;28;8828;-58
2023/07/18 07:03:49;;;;;;;;;4.00;4.00;;;;;19.31;56.20;100326.38;5032573;28;8828;-58
2023/07/18 07:06:18;;;;;;;;;3.20;3.00;;;;;19.43;55.91;100322.31;5034844;28;8812;-59
2023/07/18 07:08:45;;;;;;;;;3.00;2.40;;;;;19.55;55.84;100323.66;5033874;28;8828;-58
2023/07/18 07:11:13;;;;;;;;;2.40;1.00;;;;;19.68;55.72;100326.69;5035514;28;8944;-59
2023/07/18 07:13:41;;;;;;;;;3.00;3.00;;;;;19.81;55.73;100325.16;5027098;28;8838;-58
2023/07/18 07:16:09;;;;;;;;;4.00;3.20;;;;;19.95;55.18;100321.75;5020573;28;8844;-57
2023/07/18 07:18:37;;;;;;;;;3.80;3.00;;;;;20.06;55.35;100316.03;5034492;28;8824;-57
2023/07/18 07:21:04;;;;;;;;;2.40;2.20;;;;;20.15;55.14;100308.72;5035387;28;9633;-58
2023/07/18 07:23:32;;;;;;;;;4.00;3.60;;;;;20.24;55.24;100311.22;5034722;28;8835;-59
2023/07/18 07:26:00;;;;;;;;;2.00;1.40;;;;;20.34;54.66;100309.16;5034665;28;8839;-58
2023/07/18 07:28:28;;;;;;;;;2.40;2.40;;;;;20.45;54.33;100313.34;5034408;28;8832;-60
2023/07/18 07:30:56;;;;;;;;;0.20;0.20;;;;;20.54;54.71;100306.88;5034727;28;8986;-59
2023/07/18 07:33:24;;;;;;;;;2.40;2.40;;;;;20.61;54.70;100314.09;5034478;28;8844;-58
2023/07/18 07:35:53;;;;;;;;;2.40;2.40;;;;;20.72;54.56;100311.03;5034376;28;8858;-58
2023/07/18 07:38:21;;;;;;;;;4.00;4.00;;;;;20.83;53.82;100310.59;5033942;28;8848;-58
2023/07/18 07:40:49;;;;;;;;;2.00;2.00;;;;;20.93;54.23;100305.81;5033785;28;9612;-59
2023/07/18 07:43:17;;;;;;;;;2.00;2.00;;;;;21.00;54.24;100301.38;5034973;28;9648;-59
2023/07/18 07:45:45;;;;;;;;;2.40;2.40;;;;;21.09;53.87;100294.88;5034797;28;9564;-58
2023/07/18 07:48:12;;;;;;;;;4.00;1.40;;;;;21.15;53.45;100297.72;5035045;28;9717;-59
2023/07/18 07:50:41;;;;;;;;;2.80;2.80;;;;;21.24;53.87;100295.78;5034574;28;8916;-58
2023/07/18 07:53:09;;;;;;;;;1.00;1.00;;;;;21.30;53.22;100289.66;5034215;28;8850;-59
2023/07/18 07:55:37;;;;;;;;;4.00;2.00;;;;;21.40;53.08;100288.38;5034799;28;8958;-58
2023/07/18 07:58:07;;;;;;;;;2.80;2.00;;;;;21.48;52.88;100284.75;5020632;28;8931;-57
2023/07/18 08:00:35;;;;;;;;;2.00;2.00;;;;;21.53;53.25;100287.75;5013637;28;8821;-59
2023/07/18 08:03:03;;;;;;;;;2.00;2.00;;;;;21.56;53.44;100287.41;5015727;28;8889;-59
2023/07/18 08:05:32;;;;;;;;;2.00;2.00;;;;;21.62;53.24;100289.34;5014381;28;8826;-58
2023/07/18 08:08:00;;;;;;;;;1.20;1.20;;;;;21.71;52.88;100288.31;5015823;28;8808;-59
2023/07/18 08:10:28;;;;;;;;;1.80;1.80;;;;;21.73;52.73;100289.81;5013739;28;8814;-58
2023/07/18 08:12:56;;;;;;;;;2.80;2.00;;;;;21.74;52.87;100277.06;5014718;28;9468;-59
2023/07/18 08:15:26;;;;;;;;;3.20;2.00;;;;;21.77;52.65;100287.53;5034072;28;8836;-60
2023/07/18 08:17:54;;;;;;;;;2.00;2.00;;;;;21.80;52.53;100284.47;5033253;28;8870;-59
2023/07/18 08:20:22;;;;;;;;;1.00;1.00;;;;;21.83;52.46;100284.09;5018849;28;8827;-58
2023/07/18 08:22:50;;;;;;;;;1.60;1.60;;;;;21.88;52.36;100287.94;5013625;28;9657;-59
2023/07/18 08:25:18;;;;;;;;;2.40;2.00;;;;;21.95;52.16;100279.91;5013516;28;8860;-58
2023/07/18 08:27:46;;;;;;;;;2.00;2.00;;;;;22.02;51.71;100270.00;5021769;28;8824;-60
2023/07/18 08:30:14;;;;;;;;;1.00;1.00;;;;;22.11;51.91;100268.88;5014155;28;8973;-59
2023/07/18 08:32:42;;;;;;;;;1.80;1.00;;;;;22.19;51.64;100276.91;5013582;28;8818;-59
2023/07/18 08:35:10;;;;;;;;;1.00;1.00;;;;;22.28;51.63;100273.06;5013641;28;8844;-58
2023/07/18 08:37:39;;;;;;;;;1.00;0.60;;;;;22.36;51.54;100270.25;5014046;28;8862;-60
2023/07/18 08:40:09;;;;;;;;;0.80;0.80;;;;;22.46;51.12;100268.94;5015290;28;8822;-59
2023/07/18 08:42:37;;;;;;;;;0.20;0.20;;;;;22.57;50.67;100268.47;5014167;28;8958;-59
2023/07/18 08:45:06;;;;;;;;;2.00;2.00;;;;;22.64;50.92;100265.84;5030128;28;8839;-60
2023/07/18 08:47:33;;;;;;;;;0.00;0.00;;;;;22.73;50.55;100265.53;5022659;28;8846;-58
2023/07/18 08:50:01;;;;;;;;;1.00;1.00;;;;;22.83;50.46;100265.22;5017685;28;8826;-58
2023/07/18 08:52:29;;;;;;;;;1.00;1.00;;;;;22.89;49.74;100268.00;5033941;28;8904;-59
2023/07/18 08:54:59;;;;;;;;;1.00;1.00;;;;;22.90;49.87;100260.69;5033770;28;8836;-59
2023/07/18 08:57:27;;;;;;;;;2.00;1.00;;;;;22.95;49.94;100250.94;5014723;28;8869;-60
2023/07/18 08:59:55;;;;;;;;;1.00;1.00;;;;;23.09;49.59;100257.34;5019833;28;8820;-59
2023/07/18 09:02:23;;;;;;;;;0.60;0.20;;;;;23.18;49.15;100243.47;5032776;28;8820;-59
2023/07/18 09:04:51;;;;;;;;;1.00;1.00;;;;;23.25;49.24;100238.06;5031948;28;8816;-59
2023/07/18 09:07:19;;;;;;;;;1.00;1.00;;;;;23.40;49.00;100236.13;5013194;28;8845;-60
2023/07/18 09:09:48;;;;;;;;;4.00;1.00;;;;;23.56;48.32;100230.38;5014271;28;9521;-59
2023/07/18 09:12:15;;;;;;;;;0.20;0.00;;;;;23.69;48.13;100225.91;5030552;28;8966;-58
2023/07/18 09:14:43;;;;;;;;;1.00;1.00;;;;;23.83;47.88;100232.25;5030893;28;8953;-58
2023/07/18 09:17:11;;;;;;;;;0.40;0.40;;;;;23.95;47.88;100215.19;5021301;28;8844;-60
2023/07/18 09:19:39;;;;;;;;;1.40;0.80;;;;;24.06;47.46;100219.22;5032950;28;9582;-59
2023/07/18 09:22:08;;;;;;;;;0.00;0.00;;;;;24.14;47.10;100227.22;5031112;28;8827;-57
2023/07/18 09:24:36;;;;;;;;;1.00;1.00;;;;;24.22;46.97;100224.34;5031917;28;8856;-60
2023/07/18 09:27:04;;;;;;;;;0.00;0.00;;;;;24.28;47.08;100224.34;5031168;28;8954;-59
2023/07/18 09:29:32;;;;;;;;;1.00;1.00;;;;;24.38;46.67;100219.38;5031304;28;8836;-60
2023/07/18 09:32:01;;;;;;;;;1.00;1.00;;;;;24.42;46.54;100211.66;5031628;28;8840;-58
2023/07/18 09:34:29;;;;;;;;;1.00;1.00;;;;;24.39;47.09;100217.50;5031745;28;8920;-60
2023/07/18 09:36:58;;;;;;;;;1.20;1.20;;;;;24.48;46.89;100213.53;5032262;28;9517;-60
2023/07/18 09:39:26;;;;;;;;;1.00;1.00;;;;;24.66;46.13;100213.84;5029554;28;8868;-60
2023/07/18 09:41:54;;;;;;;;;1.00;1.00;;;;;24.87;46.09;100210.97;5012923;28;9562;-58
2023/07/18 09:44:22;;;;;;;;;0.80;0.80;;;;;25.04;45.59;100195.91;5013625;28;8930;-57
2023/07/18 09:47:00;;;;;;;;;0.60;0.60;;;;;25.13;45.90;100197.38;5012994;28;8846;-58
2023/07/18 09:49:28;;;;;;;;;1.00;1.00;;;;;25.06;46.07;100199.25;5012676;28;8838;-57
2023/07/18 09:51:59;;;;;;;;;1.00;1.00;;;;;25.06;45.76;100200.09;5012157;28;8786;-58
2023/07/18 09:54:27;;;;;;;;;0.00;0.00;;;;;25.16;45.58;100205.13;5023195;28;8824;-58
2023/07/18 09:56:57;;;;;;;;;1.00;1.00;;;;;25.23;45.40;100195.09;5031237;28;8917;-59
2023/07/18 09:59:25;;;;;;;;;1.60;1.00;;;;;25.16;45.91;100199.66;5031656;28;8824;-57
2023/07/18 10:01:54;;;;;;;;;1.00;1.00;;;;;25.09;45.15;100204.28;5029419;28;8840;-60
2023/07/18 10:04:22;;;;;;;;;1.00;1.00;;;;;25.02;45.76;100201.53;5014235;28;8857;-58
2023/07/18 10:06:50;;;;;;;;;1.00;1.00;;;;;25.05;45.39;100206.59;5013108;28;9512;-59
2023/07/18 10:09:18;;;;;;;;;1.00;1.00;;;;;25.11;44.95;100203.00;5013049;28;8830;-58
2023/07/18 10:11:46;;;;;;;;;1.00;0.80;;;;;25.11;45.53;100207.66;5012670;28;8903;-58
2023/07/18 10:14:14;;;;;;;;;2.00;2.00;;;;;24.98;45.28;100215.81;5016907;28;9524;-60
2023/07/18 10:16:42;;;;;;;;;1.00;1.00;;;;;24.97;45.90;100214.13;5029926;28;8840;-59
2023/07/18 10:19:10;;;;;;;;;1.20;1.00;;;;;25.19;45.00;100221.91;5031615;28;9812;-57
2023/07/18 10:21:39;;;;;;;;;1.20;1.20;;;;;25.78;44.71;100218.13;5015866;28;8826;-59
2023/07/18 10:24:07;;;;;;;;;1.00;1.00;;;;;26.66;43.37;100212.00;5011527;28;9025;-60
2023/07/18 10:26:34;;;;;;;;;1.60;1.00;;;;;27.29;42.55;100209.06;5012477;28;8868;-57
2023/07/18 10:29:02;;;;;;;;;1.00;1.00;;;;;27.74;41.52;100201.47;5011722;28;8841;-57
2023/07/18 10:31:30;;;;;;;;;1.40;1.40;;;;;28.02;41.33;100208.19;5011454;28;8822;-58
2023/07/18 10:33:58;;;;;;;;;1.60;1.60;;;;;27.93;41.64;100205.97;5023756;28;8824;-57
2023/07/18 10:36:26;;;;;;;;;1.00;1.00;;;;;27.67;42.00;100200.69;5035066;28;8954;-58
2023/07/18 10:38:54;;;;;;;;;0.60;0.40;;;;;27.24;42.49;100208.06;5033538;28;9556;-59
2023/07/18 10:41:22;;;;;;;;;2.00;2.00;;;;;26.80;43.30;100210.88;5034158;28;8836;-58
2023/07/18 10:43:51;;;;;;;;;1.00;1.00;;;;;26.46;43.81;100203.88;5035485;28;8831;-59
2023/07/18 10:46:19;;;;;;;;;2.00;1.60;;;;;26.35;44.00;100206.44;5019713;28;8876;-58
2023/07/18 10:48:50;;;;;;;;;2.00;2.00;;;;;26.48;43.91;100214.59;5015123;28;9596;-60
2023/07/18 10:51:18;;;;;;;;;2.20;2.20;;;;;26.55;43.60;100204.50;5013977;28;8814;-59
2023/07/18 10:53:46;;;;;;;;;1.00;1.00;;;;;26.63;43.36;100191.41;5014595;28;8833;-57
2023/07/18 10:56:14;;;;;;;;;1.40;1.20;;;;;26.65;43.21;100186.53;5013584;28;8930;-59
2023/07/18 10:58:43;;;;;;;;;1.00;1.00;;;;;26.54;43.06;100187.25;5028098;28;8823;-59
2023/07/18 11:01:11;;;;;;;;;2.00;2.00;;;;;26.77;42.27;100171.13;5019592;28;9519;-57
2023/07/18 11:03:39;;;;;;;;;1.20;1.20;;;;;27.04;42.81;100164.41;5015318;28;8842;-57
2023/07/18 11:06:08;;;;;;;;;2.00;2.00;;;;;27.03;42.22;100153.69;5013352;28;8856;-58
2023/07/18 11:08:37;;;;;;;;;2.20;2.20;;;;;26.83;42.62;100144.78;5031451;28;9516;-58
2023/07/18 11:11:05;;;;;;;;;3.00;3.00;;;;;26.58;43.10;100150.22;5031729;28;8959;-56
2023/07/18 11:13:33;;;;;;;;;1.00;1.00;;;;;26.54;43.25;100154.47;5015700;28;8853;-58
2023/07/18 11:16:01;;;;;;;;;2.00;2.00;;;;;26.47;43.51;100150.88;5019022;28;8860;-58
2023/07/18 11:18:29;;;;;;;;;1.80;1.80;;;;;26.70;42.82;100143.00;5034282;28;8824;-59
2023/07/18 11:20:58;;;;;;;;;1.80;1.80;;;;;26.70;42.91;100137.53;5034477;28;8856;-58
2023/07/18 11:23:30;;;;;;;;;2.00;2.00;;;;;26.74;42.88;100140.66;5014730;28;8873;-58
2023/07/18 11:25:58;;;;;;;;;2.40;2.40;;;;;26.90;42.65;100135.50;5014454;28;8857;-58
2023/07/18 11:28:26;;;;;;;;;2.00;2.00;;;;;26.75;42.69;100131.41;5012808;28;8838;-57
2023/07/18 11:30:54;;;;;;;;;1.40;1.40;;;;;26.64;43.04;100132.13;5012431;28;8830;-58
2023/07/18 11:33:23;;;;;;;;;2.00;2.00;;;;;26.86;42.27;100127.97;5014168;28;8873;-57
2023/07/18 11:35:50;;;;;;;;;1.00;1.00;;;;;27.12;42.31;100119.53;5032733;28;9513;-58
2023/07/18 11:38:21;;;;;;;;;2.60;2.60;;;;;27.51;40.83;100120.03;5033456;28;8824;-57